Accueil
METAR-TAF:

METAR-TAF

Aéroports :

Person County Airport

Roxboro, Caroline du Nord, États-Unis

latitude: 36-17-06N, longitude: 078-59-03W, altitude: 186 m

Observation

Le bulletin a été fait il y a 22 minutes, à 21:15 UTC
Vent 9 kt de sud-ouest
Température 12°C
Humidité 35%
Pression 1023 hPa
Visibilité: 16.1 km
Ciel clair

METAR: KTDF 192115Z AUTO 23009KT 10SM CLR 12/M03 A3021 RMK AO2

Heure: 16:37 (21:37 UTC)


TAF: absent

Observations et prévisions météorologiques de plus de 4000 aéroports (messages METAR et TAF).

Les stations disponibles sont représentées par des disques jaunes et rouges sur la carte.

Passer la souris dessus pour voir le nom de la station.

Cliquer dessus pour voir les observations et prévisions météorologiques.

Pour changer de carte: cliquez sur les boutons verts avec une croix noire pour zoomer, sur le bouton vert avec un tiret pour effectuer un zoom arrière, ou sur les flèches vertes pour les cartes adjacentes.


METAR-TAF: